sensor_id;sensor_type;location;lat;lon;timestamp;temperature;humidity
62339;DHT22;48368;53.406;6.214;2023-03-13T00:02:00;7.80;99.90
62339;DHT22;48368;53.406;6.214;2023-03-13T00:04:26;7.90;99.90
62339;DHT22;48368;53.406;6.214;2023-03-13T00:06:51;7.90;99.90
62339;DHT22;48368;53.406;6.214;2023-03-13T00:09:21;7.90;99.90
62339;DHT22;48368;53.406;6.214;2023-03-13T00:11:47;8.00;99.90
62339;DHT22;48368;53.406;6.214;2023-03-13T00:14:13;7.90;99.90
62339;DHT22;48368;53.406;6.214;2023-03-13T00:16:41;8.00;99.90
62339;DHT22;48368;53.406;6.214;2023-03-13T00:19:08;8.00;99.90
62339;DHT22;48368;53.406;6.214;2023-03-13T00:21:34;8.00;99.90
62339;DHT22;48368;53.406;6.214;2023-03-13T00:24:02;8.00;99.90
62339;DHT22;48368;53.406;6.214;2023-03-13T00:26:29;8.00;99.90
62339;DHT22;48368;53.406;6.214;2023-03-13T00:28:55;8.10;99.90
62339;DHT22;48368;53.406;6.214;2023-03-13T00:31:23;8.10;99.90
62339;DHT22;48368;53.406;6.214;2023-03-13T00:33:51;8.10;99.90
62339;DHT22;48368;53.406;6.214;2023-03-13T00:36:18;8.10;99.90
62339;DHT22;48368;53.406;6.214;2023-03-13T00:38:45;8.10;99.90
62339;DHT22;48368;53.406;6.214;2023-03-13T00:41:13;8.10;99.90
62339;DHT22;48368;53.406;6.214;2023-03-13T00:43:43;8.30;99.90
62339;DHT22;48368;53.406;6.214;2023-03-13T00:46:11;8.20;99.90
62339;DHT22;48368;53.406;6.214;2023-03-13T00:48:37;8.30;99.90
62339;DHT22;48368;53.406;6.214;2023-03-13T00:51:03;8.30;99.90
62339;DHT22;48368;53.406;6.214;2023-03-13T00:53:29;8.40;99.90
62339;DHT22;48368;53.406;6.214;2023-03-13T00:56:02;8.30;99.90
62339;DHT22;48368;53.406;6.214;2023-03-13T00:58:29;8.40;99.90
62339;DHT22;48368;53.406;6.214;2023-03-13T01:00:56;8.40;99.90
62339;DHT22;48368;53.406;6.214;2023-03-13T01:03:23;8.40;99.90
62339;DHT22;48368;53.406;6.214;2023-03-13T01:05:59;8.30;99.90
62339;DHT22;48368;53.406;6.214;2023-03-13T01:08:26;8.30;99.90
62339;DHT22;48368;53.406;6.214;2023-03-13T01:11:07;8.40;99.90
62339;DHT22;48368;53.406;6.214;2023-03-13T01:13:34;8.30;99.90
62339;DHT22;48368;53.406;6.214;2023-03-13T01:16:18;8.30;99.90
62339;DHT22;48368;53.406;6.214;2023-03-13T01:18:46;8.30;99.90
62339;DHT22;48368;53.406;6.214;2023-03-13T01:21:13;8.30;99.90
62339;DHT22;48368;53.406;6.214;2023-03-13T01:23:39;8.30;99.90
62339;DHT22;48368;53.406;6.214;2023-03-13T01:26:05;8.30;99.90
62339;DHT22;48368;53.406;6.214;2023-03-13T01:28:32;8.30;99.90
62339;DHT22;48368;53.406;6.214;2023-03-13T01:30:59;8.20;99.90
62339;DHT22;48368;53.406;6.214;2023-03-13T01:33:25;8.30;99.90
62339;DHT22;48368;53.406;6.214;2023-03-13T01:35:50;8.20;99.90
62339;DHT22;48368;53.406;6.214;2023-03-13T01:38:16;8.20;99.90
62339;DHT22;48368;53.406;6.214;2023-03-13T01:40:44;8.30;99.90
62339;DHT22;48368;53.406;6.214;2023-03-13T01:43:20;8.30;99.90
62339;DHT22;48368;53.406;6.214;2023-03-13T01:46:18;8.30;99.90
62339;DHT22;48368;53.406;6.214;2023-03-13T01:51:36;8.30;99.90
62339;DHT22;48368;53.406;6.214;2023-03-13T01:54:18;8.30;99.90
62339;DHT22;48368;53.406;6.214;2023-03-13T01:57:01;8.40;99.90
62339;DHT22;48368;53.406;6.214;2023-03-13T01:59:36;8.40;99.90
62339;DHT22;48368;53.406;6.214;2023-03-13T02:02:05;8.40;99.90
62339;DHT22;48368;53.406;6.214;2023-03-13T02:04:35;8.40;99.90
62339;DHT22;48368;53.406;6.214;2023-03-13T02:07:06;8.50;99.90
62339;DHT22;48368;53.406;6.214;2023-03-13T02:09:37;8.50;99.90
62339;DHT22;48368;53.406;6.214;2023-03-13T02:12:13;8.40;99.90
62339;DHT22;48368;53.406;6.214;2023-03-13T02:14:42;8.40;99.90
62339;DHT22;48368;53.406;6.214;2023-03-13T02:17:10;8.50;99.90
62339;DHT22;48368;53.406;6.214;2023-03-13T02:19:40;8.40;99.90
62339;DHT22;48368;53.406;6.214;2023-03-13T02:22:30;8.40;99.90
62339;DHT22;48368;53.406;6.214;2023-03-13T02:27:34;8.40;99.90
62339;DHT22;48368;53.406;6.214;2023-03-13T02:30:00;8.40;99.90
62339;DHT22;48368;53.406;6.214;2023-03-13T02:32:28;8.30;99.90
62339;DHT22;48368;53.406;6.214;2023-03-13T02:35:01;8.30;99.90
62339;DHT22;48368;53.406;6.214;2023-03-13T02:37:29;8.30;99.90
62339;DHT22;48368;53.406;6.214;2023-03-13T02:39:59;8.30;99.90
62339;DHT22;48368;53.406;6.214;2023-03-13T02:42:26;8.40;99.90
62339;DHT22;48368;53.406;6.214;2023-03-13T02:44:52;8.40;99.90
62339;DHT22;48368;53.406;6.214;2023-03-13T02:47:23;8.30;99.90
62339;DHT22;48368;53.406;6.214;2023-03-13T02:49:49;8.40;99.90
62339;DHT22;48368;53.406;6.214;2023-03-13T02:52:28;8.30;99.90
62339;DHT22;48368;53.406;6.214;2023-03-13T02:55:22;8.40;99.90
62339;DHT22;48368;53.406;6.214;2023-03-13T02:57:49;8.40;99.90
62339;DHT22;48368;53.406;6.214;2023-03-13T03:00:16;8.40;99.90
62339;DHT22;48368;53.406;6.214;2023-03-13T03:02:43;8.40;99.90
62339;DHT22;48368;53.406;6.214;2023-03-13T03:05:09;8.40;99.90
62339;DHT22;48368;53.406;6.214;2023-03-13T03:07:35;8.50;99.90
62339;DHT22;48368;53.406;6.214;2023-03-13T03:10:01;8.50;99.90
62339;DHT22;48368;53.406;6.214;2023-03-13T03:12:27;8.60;99.90
62339;DHT22;48368;53.406;6.214;2023-03-13T03:14:53;8.60;99.90
62339;DHT22;48368;53.406;6.214;2023-03-13T03:17:19;8.70;99.90
62339;DHT22;48368;53.406;6.214;2023-03-13T03:19:45;8.60;99.90
62339;DHT22;48368;53.406;6.214;2023-03-13T03:22:10;8.60;99.90
62339;DHT22;48368;53.406;6.214;2023-03-13T03:24:36;8.70;99.90
62339;DHT22;48368;53.406;6.214;2023-03-13T03:27:02;8.70;99.90
62339;DHT22;48368;53.406;6.214;2023-03-13T03:29:27;8.70;99.90
62339;DHT22;48368;53.406;6.214;2023-03-13T03:31:53;8.80;99.90
62339;DHT22;48368;53.406;6.214;2023-03-13T03:34:19;8.80;99.90
62339;DHT22;48368;53.406;6.214;2023-03-13T03:36:45;8.80;99.90
62339;DHT22;48368;53.406;6.214;2023-03-13T03:39:11;8.90;99.90
62339;DHT22;48368;53.406;6.214;2023-03-13T03:41:36;8.80;99.90
62339;DHT22;48368;53.406;6.214;2023-03-13T03:44:03;8.80;99.90
62339;DHT22;48368;53.406;6.214;2023-03-13T03:46:29;8.80;99.90
62339;DHT22;48368;53.406;6.214;2023-03-13T03:48:54;8.80;99.90
62339;DHT22;48368;53.406;6.214;2023-03-13T03:51:20;8.90;99.90
62339;DHT22;48368;53.406;6.214;2023-03-13T03:53:46;8.90;99.90
62339;DHT22;48368;53.406;6.214;2023-03-13T03:56:12;8.90;99.90
62339;DHT22;48368;53.406;6.214;2023-03-13T03:58:38;9.00;99.90
62339;DHT22;48368;53.406;6.214;2023-03-13T04:01:04;9.00;99.90
62339;DHT22;48368;53.406;6.214;2023-03-13T04:03:30;9.00;99.90
62339;DHT22;48368;53.406;6.214;2023-03-13T04:05:55;9.00;99.90
62339;DHT22;48368;53.406;6.214;2023-03-13T04:08:21;9.00;99.90
62339;DHT22;48368;53.406;6.214;2023-03-13T04:10:47;9.10;99.90
62339;DHT22;48368;53.406;6.214;2023-03-13T04:13:13;9.10;99.90
62339;DHT22;48368;53.406;6.214;2023-03-13T04:15:39;9.00;99.90
62339;DHT22;48368;53.406;6.214;2023-03-13T04:18:05;9.00;99.90
62339;DHT22;48368;53.406;6.214;2023-03-13T04:20:31;9.10;99.90
62339;DHT22;48368;53.406;6.214;2023-03-13T04:22:57;9.00;99.90
62339;DHT22;48368;53.406;6.214;2023-03-13T04:25:23;9.10;99.90
62339;DHT22;48368;53.406;6.214;2023-03-13T04:27:48;9.20;99.90
62339;DHT22;48368;53.406;6.214;2023-03-13T04:30:14;9.20;99.90
62339;DHT22;48368;53.406;6.214;2023-03-13T04:32:40;9.20;99.90
62339;DHT22;48368;53.406;6.214;2023-03-13T04:35:06;9.30;99.90
62339;DHT22;48368;53.406;6.214;2023-03-13T04:37:32;9.30;99.90
62339;DHT22;48368;53.406;6.214;2023-03-13T04:39:58;9.30;99.90
62339;DHT22;48368;53.406;6.214;2023-03-13T04:42:23;9.40;99.90
62339;DHT22;48368;53.406;6.214;2023-03-13T04:44:49;9.50;99.90
62339;DHT22;48368;53.406;6.214;2023-03-13T04:47:15;9.40;99.90
62339;DHT22;48368;53.406;6.214;2023-03-13T04:49:40;9.50;99.90
62339;DHT22;48368;53.406;6.214;2023-03-13T04:52:06;9.60;99.90
62339;DHT22;48368;53.406;6.214;2023-03-13T04:54:32;9.70;99.90
62339;DHT22;48368;53.406;6.214;2023-03-13T04:56:58;9.70;99.90
62339;DHT22;48368;53.406;6.214;2023-03-13T04:59:23;9.60;99.90
62339;DHT22;48368;53.406;6.214;2023-03-13T05:01:49;9.70;99.90
62339;DHT22;48368;53.406;6.214;2023-03-13T05:04:14;9.70;99.90
62339;DHT22;48368;53.406;6.214;2023-03-13T05:06:40;9.80;99.90
62339;DHT22;48368;53.406;6.214;2023-03-13T05:09:06;9.70;99.90
62339;DHT22;48368;53.406;6.214;2023-03-13T05:11:32;9.80;99.90
62339;DHT22;48368;53.406;6.214;2023-03-13T05:13:58;9.80;99.90
62339;DHT22;48368;53.406;6.214;2023-03-13T05:16:24;9.90;99.90
62339;DHT22;48368;53.406;6.214;2023-03-13T05:18:49;10.00;99.90
62339;DHT22;48368;53.406;6.214;2023-03-13T05:21:15;9.80;99.90
62339;DHT22;48368;53.406;6.214;2023-03-13T05:23:41;10.00;99.90
62339;DHT22;48368;53.406;6.214;2023-03-13T05:26:07;10.10;99.90
62339;DHT22;48368;53.406;6.214;2023-03-13T05:28:32;10.10;99.90
62339;DHT22;48368;53.406;6.214;2023-03-13T05:30:58;10.00;99.90
62339;DHT22;48368;53.406;6.214;2023-03-13T05:33:24;10.00;99.90
62339;DHT22;48368;53.406;6.214;2023-03-13T05:35:50;10.10;99.90
62339;DHT22;48368;53.406;6.214;2023-03-13T05:38:15;10.00;99.90
62339;DHT22;48368;53.406;6.214;2023-03-13T05:40:41;10.00;99.90
62339;DHT22;48368;53.406;6.214;2023-03-13T05:43:07;10.10;99.90
62339;DHT22;48368;53.406;6.214;2023-03-13T05:45:32;10.10;99.90
62339;DHT22;48368;53.406;6.214;2023-03-13T05:47:58;10.10;99.90
62339;DHT22;48368;53.406;6.214;2023-03-13T05:50:24;10.20;99.90
62339;DHT22;48368;53.406;6.214;2023-03-13T05:52:50;10.20;99.90
62339;DHT22;48368;53.406;6.214;2023-03-13T05:55:16;10.20;99.90
62339;DHT22;48368;53.406;6.214;2023-03-13T05:57:48;10.20;99.90
62339;DHT22;48368;53.406;6.214;2023-03-13T06:00:15;10.20;99.90
62339;DHT22;48368;53.406;6.214;2023-03-13T06:02:42;10.30;99.90
62339;DHT22;48368;53.406;6.214;2023-03-13T06:05:08;10.20;99.90
62339;DHT22;48368;53.406;6.214;2023-03-13T06:07:34;10.30;99.90
62339;DHT22;48368;53.406;6.214;2023-03-13T06:10:02;10.20;99.90
62339;DHT22;48368;53.406;6.214;2023-03-13T06:12:28;10.30;99.90
62339;DHT22;48368;53.406;6.214;2023-03-13T06:14:53;10.20;99.90
62339;DHT22;48368;53.406;6.214;2023-03-13T06:17:22;10.20;99.90
62339;DHT22;48368;53.406;6.214;2023-03-13T06:19:49;10.20;99.90
62339;DHT22;48368;53.406;6.214;2023-03-13T06:22:16;10.30;99.90
62339;DHT22;48368;53.406;6.214;2023-03-13T06:24:42;10.30;99.90
62339;DHT22;48368;53.406;6.214;2023-03-13T06:27:09;10.30;99.90
62339;DHT22;48368;53.406;6.214;2023-03-13T06:29:35;10.40;99.90
62339;DHT22;48368;53.406;6.214;2023-03-13T06:32:00;10.40;99.90
62339;DHT22;48368;53.406;6.214;2023-03-13T06:34:26;10.40;99.90
62339;DHT22;48368;53.406;6.214;2023-03-13T06:36:52;10.30;99.90
62339;DHT22;48368;53.406;6.214;2023-03-13T06:39:17;10.30;99.90
62339;DHT22;48368;53.406;6.214;2023-03-13T06:41:44;10.50;99.90
62339;DHT22;48368;53.406;6.214;2023-03-13T06:44:09;10.40;99.90
62339;DHT22;48368;53.406;6.214;2023-03-13T06:46:35;10.40;99.90
62339;DHT22;48368;53.406;6.214;2023-03-13T06:49:01;10.40;99.90
62339;DHT22;48368;53.406;6.214;2023-03-13T06:51:29;10.50;99.90
62339;DHT22;48368;53.406;6.214;2023-03-13T06:53:55;10.50;99.90
62339;DHT22;48368;53.406;6.214;2023-03-13T06:56:20;10.40;99.90
62339;DHT22;48368;53.406;6.214;2023-03-13T06:58:47;10.40;99.90
62339;DHT22;48368;53.406;6.214;2023-03-13T07:01:14;10.40;99.90
62339;DHT22;48368;53.406;6.214;2023-03-13T07:03:41;10.50;99.90
62339;DHT22;48368;53.406;6.214;2023-03-13T07:06:07;10.40;99.90
62339;DHT22;48368;53.406;6.214;2023-03-13T07:08:34;10.40;99.90
62339;DHT22;48368;53.406;6.214;2023-03-13T07:11:02;10.50;99.90
62339;DHT22;48368;53.406;6.214;2023-03-13T07:13:29;10.60;99.90
62339;DHT22;48368;53.406;6.214;2023-03-13T07:15:58;10.60;99.90
62339;DHT22;48368;53.406;6.214;2023-03-13T07:18:24;10.60;99.90
62339;DHT22;48368;53.406;6.214;2023-03-13T07:20:54;10.60;99.90
62339;DHT22;48368;53.406;6.214;2023-03-13T07:23:20;10.70;99.90
62339;DHT22;48368;53.406;6.214;2023-03-13T07:26:01;10.60;99.90
62339;DHT22;48368;53.406;6.214;2023-03-13T07:28:29;10.70;99.90
62339;DHT22;48368;53.406;6.214;2023-03-13T07:31:03;10.70;99.90
62339;DHT22;48368;53.406;6.214;2023-03-13T07:33:28;10.70;99.90
62339;DHT22;48368;53.406;6.214;2023-03-13T07:35:54;10.70;99.90
62339;DHT22;48368;53.406;6.214;2023-03-13T07:38:19;10.80;99.90
62339;DHT22;48368;53.406;6.214;2023-03-13T07:40:53;10.70;99.90
62339;DHT22;48368;53.406;6.214;2023-03-13T07:43:20;10.80;99.90
62339;DHT22;48368;53.406;6.214;2023-03-13T07:45:53;10.80;99.90
62339;DHT22;48368;53.406;6.214;2023-03-13T07:48:19;10.90;99.90
62339;DHT22;48368;53.406;6.214;2023-03-13T07:50:45;10.80;99.90
62339;DHT22;48368;53.406;6.214;2023-03-13T07:53:11;10.90;99.90
62339;DHT22;48368;53.406;6.214;2023-03-13T07:55:37;10.90;99.90
62339;DHT22;48368;53.406;6.214;2023-03-13T07:58:02;10.90;99.90
62339;DHT22;48368;53.406;6.214;2023-03-13T08:00:28;10.90;99.90
62339;DHT22;48368;53.406;6.214;2023-03-13T08:02:53;11.00;99.90
62339;DHT22;48368;53.406;6.214;2023-03-13T08:05:19;11.00;99.90
62339;DHT22;48368;53.406;6.214;2023-03-13T08:07:47;11.00;99.90
62339;DHT22;48368;53.406;6.214;2023-03-13T08:10:13;11.00;99.90
62339;DHT22;48368;53.406;6.214;2023-03-13T08:12:39;11.00;99.90
62339;DHT22;48368;53.406;6.214;2023-03-13T08:15:05;11.00;99.90
62339;DHT22;48368;53.406;6.214;2023-03-13T08:17:30;11.00;99.90
62339;DHT22;48368;53.406;6.214;2023-03-13T08:19:56;11.00;99.90
62339;DHT22;48368;53.406;6.214;2023-03-13T08:22:28;11.00;99.90
62339;DHT22;48368;53.406;6.214;2023-03-13T08:24:57;11.10;99.90
62339;DHT22;48368;53.406;6.214;2023-03-13T08:27:29;11.10;99.90
62339;DHT22;48368;53.406;6.214;2023-03-13T08:29:58;11.20;99.90
62339;DHT22;48368;53.406;6.214;2023-03-13T08:32:23;11.30;99.90
62339;DHT22;48368;53.406;6.214;2023-03-13T08:34:58;11.40;99.90
62339;DHT22;48368;53.406;6.214;2023-03-13T08:37:24;11.40;99.90
62339;DHT22;48368;53.406;6.214;2023-03-13T08:39:49;11.50;99.90
62339;DHT22;48368;53.406;6.214;2023-03-13T08:42:15;11.60;99.90
62339;DHT22;48368;53.406;6.214;2023-03-13T08:44:41;11.80;99.90
62339;DHT22;48368;53.406;6.214;2023-03-13T08:47:07;11.80;99.90
62339;DHT22;48368;53.406;6.214;2023-03-13T08:49:33;12.00;99.90
62339;DHT22;48368;53.406;6.214;2023-03-13T08:51:58;12.00;99.90
62339;DHT22;48368;53.406;6.214;2023-03-13T08:54:25;12.10;99.90
62339;DHT22;48368;53.406;6.214;2023-03-13T08:56:51;12.20;99.90
62339;DHT22;48368;53.406;6.214;2023-03-13T08:59:16;12.30;99.90
62339;DHT22;48368;53.406;6.214;2023-03-13T09:01:42;12.40;99.90
62339;DHT22;48368;53.406;6.214;2023-03-13T09:04:10;12.50;99.90
62339;DHT22;48368;53.406;6.214;2023-03-13T09:06:37;12.60;99.90
62339;DHT22;48368;53.406;6.214;2023-03-13T09:09:08;12.70;99.90
62339;DHT22;48368;53.406;6.214;2023-03-13T09:11:36;12.70;99.90
62339;DHT22;48368;53.406;6.214;2023-03-13T09:14:02;12.70;99.90
62339;DHT22;48368;53.406;6.214;2023-03-13T09:16:29;12.60;99.90
62339;DHT22;48368;53.406;6.214;2023-03-13T09:18:56;12.50;99.90
62339;DHT22;48368;53.406;6.214;2023-03-13T09:21:26;12.50;99.90
62339;DHT22;48368;53.406;6.214;2023-03-13T09:23:51;12.50;99.90
62339;DHT22;48368;53.406;6.214;2023-03-13T09:26:19;12.40;99.90
62339;DHT22;48368;53.406;6.214;2023-03-13T09:28:45;12.40;99.90
62339;DHT22;48368;53.406;6.214;2023-03-13T09:31:13;12.40;99.90
62339;DHT22;48368;53.406;6.214;2023-03-13T09:33:40;12.30;99.90
62339;DHT22;48368;53.406;6.214;2023-03-13T09:36:06;12.30;99.90
62339;DHT22;48368;53.406;6.214;2023-03-13T09:38:32;12.20;99.90
62339;DHT22;48368;53.406;6.214;2023-03-13T09:44:17;12.10;99.90
62339;DHT22;48368;53.406;6.214;2023-03-13T09:51:47;12.00;99.90
62339;DHT22;48368;53.406;6.214;2023-03-13T09:57:12;12.10;99.90
62339;DHT22;48368;53.406;6.214;2023-03-13T10:02:29;12.20;99.90
62339;DHT22;48368;53.406;6.214;2023-03-13T10:05:06;12.30;99.90
62339;DHT22;48368;53.406;6.214;2023-03-13T10:07:33;12.40;99.90
62339;DHT22;48368;53.406;6.214;2023-03-13T10:10:00;12.40;99.90
62339;DHT22;48368;53.406;6.214;2023-03-13T10:12:30;12.60;99.90
62339;DHT22;48368;53.406;6.214;2023-03-13T10:15:15;12.70;99.90
62339;DHT22;48368;53.406;6.214;2023-03-13T10:17:42;12.80;99.90
62339;DHT22;48368;53.406;6.214;2023-03-13T10:22:59;13.10;99.90
62339;DHT22;48368;53.406;6.214;2023-03-13T10:25:34;13.20;99.90
62339;DHT22;48368;53.406;6.214;2023-03-13T10:28:01;13.30;99.90
62339;DHT22;48368;53.406;6.214;2023-03-13T10:30:32;13.50;99.90
62339;DHT22;48368;53.406;6.214;2023-03-13T10:35:34;13.40;99.90
62339;DHT22;48368;53.406;6.214;2023-03-13T10:38:12;13.40;99.90
62339;DHT22;48368;53.406;6.214;2023-03-13T10:40:38;13.40;99.90
62339;DHT22;48368;53.406;6.214;2023-03-13T10:43:17;13.50;99.90
62339;DHT22;48368;53.406;6.214;2023-03-13T10:45:43;13.60;99.90
62339;DHT22;48368;53.406;6.214;2023-03-13T10:48:17;13.80;99.90
62339;DHT22;48368;53.406;6.214;2023-03-13T10:50:45;13.90;99.90
62339;DHT22;48368;53.406;6.214;2023-03-13T10:55:52;14.00;99.90
62339;DHT22;48368;53.406;6.214;2023-03-13T10:58:27;14.00;99.90
62339;DHT22;48368;53.406;6.214;2023-03-13T11:01:13;14.10;99.90
62339;DHT22;48368;53.406;6.214;2023-03-13T11:03:41;14.20;99.90
62339;DHT22;48368;53.406;6.214;2023-03-13T11:06:22;14.20;99.90
62339;DHT22;48368;53.406;6.214;2023-03-13T11:08:48;14.30;99.90
62339;DHT22;48368;53.406;6.214;2023-03-13T11:11:19;14.30;99.90
62339;DHT22;48368;53.406;6.214;2023-03-13T11:13:45;14.30;99.90
62339;DHT22;48368;53.406;6.214;2023-03-13T11:16:21;14.40;99.90
62339;DHT22;48368;53.406;6.214;2023-03-13T11:27:25;14.10;99.90
62339;DHT22;48368;53.406;6.214;2023-03-13T11:30:00;13.90;99.90
62339;DHT22;48368;53.406;6.214;2023-03-13T11:35:46;13.90;99.90
62339;DHT22;48368;53.406;6.214;2023-03-13T11:38:38;13.80;99.90
62339;DHT22;48368;53.406;6.214;2023-03-13T11:49:56;13.70;99.90
62339;DHT22;48368;53.406;6.214;2023-03-13T12:01:50;14.00;99.90
62339;DHT22;48368;53.406;6.214;2023-03-13T12:04:24;14.10;99.90
62339;DHT22;48368;53.406;6.214;2023-03-13T12:07:01;14.10;99.90
62339;DHT22;48368;53.406;6.214;2023-03-13T12:09:41;14.00;99.90
62339;DHT22;48368;53.406;6.214;2023-03-13T12:15:40;13.90;99.90
62339;DHT22;48368;53.406;6.214;2023-03-13T12:17:50;13.70;99.90
62339;DHT22;48368;53.406;6.214;2023-03-13T12:25:30;13.80;99.90
62339;DHT22;48368;53.406;6.214;2023-03-13T12:28:22;13.80;99.90
62339;DHT22;48368;53.406;6.214;2023-03-13T12:31:00;13.80;99.90
62339;DHT22;48368;53.406;6.214;2023-03-13T12:33:42;13.90;99.90
62339;DHT22;48368;53.406;6.214;2023-03-13T12:36:16;14.00;99.90
62339;DHT22;48368;53.406;6.214;2023-03-13T12:38:54;14.10;99.90
62339;DHT22;48368;53.406;6.214;2023-03-13T12:41:42;14.00;99.90
62339;DHT22;48368;53.406;6.214;2023-03-13T12:44:13;14.10;99.90
62339;DHT22;48368;53.406;6.214;2023-03-13T12:46:45;14.10;99.90
62339;DHT22;48368;53.406;6.214;2023-03-13T12:51:54;14.10;99.90
62339;DHT22;48368;53.406;6.214;2023-03-13T12:57:19;14.10;99.90
62339;DHT22;48368;53.406;6.214;2023-03-13T12:59:53;14.10;99.90
62339;DHT22;48368;53.406;6.214;2023-03-13T13:02:27;14.10;99.90
62339;DHT22;48368;53.406;6.214;2023-03-13T13:04:55;14.10;99.90
62339;DHT22;48368;53.406;6.214;2023-03-13T13:07:23;14.10;99.90
62339;DHT22;48368;53.406;6.214;2023-03-13T13:12:45;14.20;99.90
62339;DHT22;48368;53.406;6.214;2023-03-13T13:15:19;14.20;99.90
62339;DHT22;48368;53.406;6.214;2023-03-13T13:18:03;14.20;99.90
62339;DHT22;48368;53.406;6.214;2023-03-13T13:20:48;14.20;99.90
62339;DHT22;48368;53.406;6.214;2023-03-13T13:23:37;14.00;99.90
62339;DHT22;48368;53.406;6.214;2023-03-13T13:28:52;14.10;99.90
62339;DHT22;48368;53.406;6.214;2023-03-13T13:36:57;14.00;99.90
62339;DHT22;48368;53.406;6.214;2023-03-13T13:47:29;14.10;99.90
62339;DHT22;48368;53.406;6.214;2023-03-13T13:49:56;14.00;99.90
62339;DHT22;48368;53.406;6.214;2023-03-13T13:52:37;14.00;99.90
62339;DHT22;48368;53.406;6.214;2023-03-13T13:58:05;14.00;99.90
62339;DHT22;48368;53.406;6.214;2023-03-13T14:00:44;14.00;99.90
62339;DHT22;48368;53.406;6.214;2023-03-13T14:03:20;14.00;99.90
62339;DHT22;48368;53.406;6.214;2023-03-13T14:05:48;13.90;99.90
62339;DHT22;48368;53.406;6.214;2023-03-13T14:08:20;14.00;99.90
62339;DHT22;48368;53.406;6.214;2023-03-13T14:10:54;14.00;99.90
62339;DHT22;48368;53.406;6.214;2023-03-13T14:13:29;14.00;99.90
62339;DHT22;48368;53.406;6.214;2023-03-13T14:15:54;13.90;99.90
62339;DHT22;48368;53.406;6.214;2023-03-13T14:18:28;14.00;99.90
62339;DHT22;48368;53.406;6.214;2023-03-13T14:21:01;13.90;99.90
62339;DHT22;48368;53.406;6.214;2023-03-13T14:23:36;13.80;99.90
62339;DHT22;48368;53.406;6.214;2023-03-13T14:26:16;13.80;99.90
62339;DHT22;48368;53.406;6.214;2023-03-13T14:33:51;13.70;99.90
62339;DHT22;48368;53.406;6.214;2023-03-13T14:36:17;13.70;99.90
62339;DHT22;48368;53.406;6.214;2023-03-13T14:38:54;13.60;99.90
62339;DHT22;48368;53.406;6.214;2023-03-13T14:41:35;13.60;99.90
62339;DHT22;48368;53.406;6.214;2023-03-13T14:44:09;13.60;99.90
62339;DHT22;48368;53.406;6.214;2023-03-13T14:46:39;13.40;99.90
62339;DHT22;48368;53.406;6.214;2023-03-13T14:49:20;13.40;99.90
62339;DHT22;48368;53.406;6.214;2023-03-13T14:52:01;13.40;99.90
62339;DHT22;48368;53.406;6.214;2023-03-13T14:54:36;13.20;99.90
62339;DHT22;48368;53.406;6.214;2023-03-13T14:57:19;13.20;99.90
62339;DHT22;48368;53.406;6.214;2023-03-13T14:59:48;13.30;99.90
62339;DHT22;48368;53.406;6.214;2023-03-13T15:02:28;13.30;99.90
62339;DHT22;48368;53.406;6.214;2023-03-13T15:05:03;13.30;99.90
62339;DHT22;48368;53.406;6.214;2023-03-13T15:07:47;13.20;99.90
62339;DHT22;48368;53.406;6.214;2023-03-13T15:10:31;13.20;99.90
62339;DHT22;48368;53.406;6.214;2023-03-13T15:12:57;13.20;99.90
62339;DHT22;48368;53.406;6.214;2023-03-13T15:15:24;13.10;99.90
62339;DHT22;48368;53.406;6.214;2023-03-13T15:17:49;13.00;99.90
62339;DHT22;48368;53.406;6.214;2023-03-13T15:20:15;13.00;99.90
62339;DHT22;48368;53.406;6.214;2023-03-13T15:22:44;12.90;99.90
62339;DHT22;48368;53.406;6.214;2023-03-13T15:25:21;12.80;99.90
62339;DHT22;48368;53.406;6.214;2023-03-13T15:27:48;12.70;99.90
62339;DHT22;48368;53.406;6.214;2023-03-13T15:30:23;12.70;99.90
62339;DHT22;48368;53.406;6.214;2023-03-13T15:32:49;12.70;99.90
62339;DHT22;48368;53.406;6.214;2023-03-13T15:35:27;12.60;99.90
62339;DHT22;48368;53.406;6.214;2023-03-13T15:37:54;12.60;99.90
62339;DHT22;48368;53.406;6.214;2023-03-13T15:40:20;12.60;99.90
62339;DHT22;48368;53.406;6.214;2023-03-13T15:42:48;12.50;99.90
62339;DHT22;48368;53.406;6.214;2023-03-13T15:45:14;12.40;99.90
62339;DHT22;48368;53.406;6.214;2023-03-13T15:47:40;12.40;99.90
62339;DHT22;48368;53.406;6.214;2023-03-13T15:50:11;12.30;99.90
62339;DHT22;48368;53.406;6.214;2023-03-13T15:52:37;12.30;99.90
62339;DHT22;48368;53.406;6.214;2023-03-13T15:55:03;12.30;99.90
62339;DHT22;48368;53.406;6.214;2023-03-13T15:57:35;12.20;99.90
62339;DHT22;48368;53.406;6.214;2023-03-13T16:00:03;12.20;99.90
62339;DHT22;48368;53.406;6.214;2023-03-13T16:02:32;12.20;99.90
62339;DHT22;48368;53.406;6.214;2023-03-13T16:04:57;12.20;99.90
62339;DHT22;48368;53.406;6.214;2023-03-13T16:07:23;12.20;99.90
62339;DHT22;48368;53.406;6.214;2023-03-13T16:09:55;12.10;99.90
62339;DHT22;48368;53.406;6.214;2023-03-13T16:12:21;12.20;99.90
62339;DHT22;48368;53.406;6.214;2023-03-13T16:14:46;12.20;99.90
62339;DHT22;48368;53.406;6.214;2023-03-13T16:17:15;12.10;99.90
62339;DHT22;48368;53.406;6.214;2023-03-13T16:19:42;12.10;99.90
62339;DHT22;48368;53.406;6.214;2023-03-13T16:22:07;12.10;99.90
62339;DHT22;48368;53.406;6.214;2023-03-13T16:24:33;12.10;99.90
62339;DHT22;48368;53.406;6.214;2023-03-13T16:26:58;12.10;99.90
62339;DHT22;48368;53.406;6.214;2023-03-13T16:29:24;11.90;99.90
62339;DHT22;48368;53.406;6.214;2023-03-13T16:31:50;11.90;99.90
62339;DHT22;48368;53.406;6.214;2023-03-13T16:34:16;11.80;99.90
62339;DHT22;48368;53.406;6.214;2023-03-13T16:36:42;11.90;99.90
62339;DHT22;48368;53.406;6.214;2023-03-13T16:39:13;11.70;99.90
62339;DHT22;48368;53.406;6.214;2023-03-13T16:41:39;11.60;99.90
62339;DHT22;48368;53.406;6.214;2023-03-13T16:44:05;11.60;99.90
62339;DHT22;48368;53.406;6.214;2023-03-13T16:46:37;11.60;99.90
62339;DHT22;48368;53.406;6.214;2023-03-13T16:49:03;11.50;99.90
62339;DHT22;48368;53.406;6.214;2023-03-13T16:51:29;11.50;99.90
62339;DHT22;48368;53.406;6.214;2023-03-13T16:53:57;11.40;99.90
62339;DHT22;48368;53.406;6.214;2023-03-13T16:56:33;11.40;99.90
62339;DHT22;48368;53.406;6.214;2023-03-13T16:59:09;11.30;99.90
62339;DHT22;48368;53.406;6.214;2023-03-13T17:01:35;11.30;99.90
62339;DHT22;48368;53.406;6.214;2023-03-13T17:04:01;11.20;99.90
62339;DHT22;48368;53.406;6.214;2023-03-13T17:06:38;11.20;99.90
62339;DHT22;48368;53.406;6.214;2023-03-13T17:09:11;11.10;99.90
62339;DHT22;48368;53.406;6.214;2023-03-13T17:11:38;11.10;99.90
62339;DHT22;48368;53.406;6.214;2023-03-13T17:14:04;11.10;99.90
62339;DHT22;48368;53.406;6.214;2023-03-13T17:16:32;11.00;99.90
62339;DHT22;48368;53.406;6.214;2023-03-13T17:18:59;11.00;99.90
62339;DHT22;48368;53.406;6.214;2023-03-13T17:21:27;10.90;99.90
62339;DHT22;48368;53.406;6.214;2023-03-13T17:23:53;11.00;99.90
62339;DHT22;48368;53.406;6.214;2023-03-13T17:26:20;10.90;99.90